Willow Grove, Texas
Current Conditions -  °F | °C
As of 4:55 AM on Saturday 25 Oct 2014 (Local Time) from KTPL Reporting Station
Clear Clear  
Wind Chill: 16°   Ceiling: Unl
Heat Index: 16°   Visibility: 10mi
Dew Point: 12°   Wind: 7mph
Humidity: 77%   Direction: 160°SSE
Pressure: 30.12"   Gusts: NA
Location:  31.2688°N, 97.3985°W
Report Text: KTPL 250955Z AUTO 16006KT 10SM CLR 16/12 A3012 RMK AO1
Loading
Personal Weather Stations






























Interactive Weather Map
Tropical Storm Tracking
New forecast layout! Learn more

10-Day Weather Forecast

Advertisements
Track Severe Weather on mobile